Time;durP1;ratioP1;P1;durP2;ratioP2;P2;SDS_P1;SDS_P2;PMS_P1;PMS_P2;Temp;Humidity;BMP_temperature;BMP_pressure;BME280_temperature;BME280_humidity;BME280_pressure;Samples;Min_cycle;Max_cycle;Signal;HPM_P1;HPM_P2
2021/08/25 00:02:49;;;;;;;10.80;9.52;;;15.90;78.90;;;;;;6227993;28;20531;-79
2021/08/25 00:05:50;;;;;;;12.52;11.23;;;15.90;79.10;;;;;;6227671;28;20511;-78
2021/08/25 00:08:54;;;;;;;11.93;10.77;;;16.10;79.10;;;;;;6223974;28;20459;-79
2021/08/25 00:11:55;;;;;;;11.65;10.45;;;15.80;79.50;;;;;;6226619;28;20472;-78
2021/08/25 00:14:57;;;;;;;12.18;10.98;;;15.70;79.70;;;;;;6226214;28;20504;-78
2021/08/25 00:17:59;;;;;;;12.30;11.00;;;15.70;80.20;;;;;;6226467;28;20440;-79
2021/08/25 00:21:01;;;;;;;11.80;10.60;;;15.70;79.60;;;;;;6226831;28;20416;-79
2021/08/25 00:24:05;;;;;;;11.97;10.77;;;15.70;79.30;;;;;;6226756;28;20485;-78
2021/08/25 00:27:07;;;;;;;12.75;11.40;;;15.60;79.40;;;;;;6226378;28;20547;-79
2021/08/25 00:30:09;;;;;;;14.05;11.52;;;15.60;79.20;;;;;;6227553;28;20855;-79
2021/08/25 00:33:11;;;;;;;12.37;11.07;;;15.60;79.60;;;;;;6226337;28;20543;-79
2021/08/25 00:36:13;;;;;;;11.63;10.48;;;15.50;80.00;;;;;;6226923;28;20972;-79
2021/08/25 00:39:16;;;;;;;12.38;11.07;;;15.50;80.10;;;;;;6227636;28;20451;-79
2021/08/25 00:42:18;;;;;;;14.30;11.70;;;15.40;80.20;;;;;;6226629;28;20523;-80
2021/08/25 00:45:20;;;;;;;13.87;11.43;;;15.40;80.10;;;;;;6226980;28;20407;-79
2021/08/25 00:48:22;;;;;;;11.52;10.32;;;15.40;80.40;;;;;;6226331;28;20413;-79
2021/08/25 00:51:24;;;;;;;12.60;11.03;;;15.40;80.60;;;;;;6226848;28;20419;-79
2021/08/25 00:54:27;;;;;;;14.23;10.73;;;15.40;80.50;;;;;;6228247;28;20523;-79
2021/08/25 00:57:29;;;;;;;13.75;12.35;;;15.40;80.40;;;;;;6227476;28;20970;-79
2021/08/25 01:00:31;;;;;;;13.30;11.02;;;15.30;80.80;;;;;;6226735;28;20877;-79
2021/08/25 01:03:40;;;;;;;10.98;9.85;;;15.40;80.80;;;;;;6227105;28;20492;-79
2021/08/25 01:06:42;;;;;;;12.70;9.82;;;15.20;81.20;;;;;;6227706;28;20579;-79
2021/08/25 01:09:45;;;;;;;12.50;11.13;;;15.10;80.70;;;;;;6227611;28;20464;-79
2021/08/25 01:12:47;;;;;;;13.55;12.15;;;15.10;81.00;;;;;;6227015;28;20472;-79
2021/08/25 01:15:49;;;;;;;11.25;9.82;;;15.40;81.40;;;;;;6227247;28;20784;-79
2021/08/25 01:18:51;;;;;;;12.68;11.32;;;15.00;81.60;;;;;;6226398;28;20456;-79
2021/08/25 01:21:53;;;;;;;13.27;11.90;;;15.00;81.30;;;;;;6227113;28;20794;-79
2021/08/25 01:24:57;;;;;;;13.43;12.13;;;15.40;81.20;;;;;;6226606;28;20898;-79
2021/08/25 01:28:00;;;;;;;13.93;12.52;;;15.50;81.90;;;;;;6225821;28;20506;-78
2021/08/25 01:31:04;;;;;;;12.93;11.50;;;15.20;82.00;;;;;;6225756;28;20985;-79
2021/08/25 01:34:07;;;;;;;13.33;12.03;;;15.10;81.40;;;;;;6226334;28;20436;-79
2021/08/25 01:37:09;;;;;;;13.37;12.07;;;14.90;81.40;;;;;;6225575;28;20428;-79
2021/08/25 01:40:12;;;;;;;13.85;12.40;;;14.90;81.60;;;;;;6226210;28;20512;-79
2021/08/25 01:43:14;;;;;;;14.07;11.63;;;14.90;82.20;;;;;;6225493;28;20421;-79
2021/08/25 01:46:26;;;;;;;15.48;12.32;;;14.90;81.80;;;;;;6225893;28;20491;-78
2021/08/25 01:49:28;;;;;;;14.25;12.52;;;14.90;82.00;;;;;;6225961;28;20494;-80
2021/08/25 01:52:29;;;;;;;12.63;11.35;;;14.80;81.70;;;;;;6226241;28;20499;-79
2021/08/25 01:55:31;;;;;;;14.57;12.37;;;14.90;81.80;;;;;;6226810;28;20455;-79
2021/08/25 01:58:33;;;;;;;13.30;12.00;;;14.90;81.70;;;;;;6228158;28;20518;-79
2021/08/25 02:01:36;;;;;;;14.00;12.57;;;14.90;81.50;;;;;;6227336;28;20607;-79
2021/08/25 02:04:38;;;;;;;12.45;11.25;;;15.20;81.80;;;;;;6226134;28;20827;-79
2021/08/25 02:07:40;;;;;;;14.15;12.65;;;14.90;81.50;;;;;;6226982;28;20413;-78
2021/08/25 02:10:42;;;;;;;14.18;12.70;;;15.10;81.80;;;;;;6227475;28;20433;-79
2021/08/25 02:13:44;;;;;;;15.38;12.18;;;14.80;81.70;;;;;;6229424;28;20522;-79
2021/08/25 02:16:47;;;;;;;13.75;12.45;;;15.10;82.10;;;;;;6230270;28;21000;-79
2021/08/25 02:19:49;;;;;;;14.00;12.50;;;14.80;82.00;;;;;;6229855;28;20475;-79
2021/08/25 02:22:50;;;;;;;14.60;13.02;;;14.80;82.00;;;;;;6229495;28;20922;-79
2021/08/25 02:25:52;;;;;;;13.40;12.25;;;15.30;82.90;;;;;;6229350;28;20479;-79
2021/08/25 02:28:54;;;;;;;14.70;13.27;;;15.20;82.60;;;;;;6226113;28;20427;-79
2021/08/25 02:31:57;;;;;;;15.50;13.95;;;14.70;81.90;;;;;;6223982;28;20496;-79
2021/08/25 02:34:59;;;;;;;14.48;13.13;;;14.60;82.20;;;;;;6223240;28;21037;-79
2021/08/25 02:38:01;;;;;;;14.30;13.00;;;14.60;82.30;;;;;;6222690;28;21190;-78
2021/08/25 02:41:03;;;;;;;15.32;13.02;;;14.60;82.40;;;;;;6223255;28;20505;-79
2021/08/25 02:44:05;;;;;;;15.35;13.75;;;14.60;82.60;;;;;;6222291;28;20498;-78
2021/08/25 02:47:09;;;;;;;15.00;13.23;;;14.80;82.70;;;;;;6222401;28;20479;-78
2021/08/25 02:50:11;;;;;;;15.10;13.53;;;14.40;82.50;;;;;;6222491;28;20528;-78
2021/08/25 02:53:13;;;;;;;15.32;13.90;;;14.40;82.60;;;;;;6222387;28;20503;-78
2021/08/25 02:56:15;;;;;;;14.85;13.00;;;14.40;82.90;;;;;;6222329;28;20487;-78
2021/08/25 02:59:17;;;;;;;14.93;13.48;;;14.30;83.00;;;;;;6222681;28;20491;-78
2021/08/25 03:02:20;;;;;;;16.52;13.48;;;14.30;83.10;;;;;;6222136;28;20467;-78
2021/08/25 03:05:21;;;;;;;16.45;13.27;;;14.20;83.30;;;;;;6222584;28;20432;-79
2021/08/25 03:08:23;;;;;;;14.98;13.57;;;14.20;83.40;;;;;;6221834;28;20875;-79
2021/08/25 03:11:25;;;;;;;16.50;14.37;;;14.20;83.50;;;;;;6225131;28;20416;-78
2021/08/25 03:14:27;;;;;;;16.25;14.52;;;14.10;83.20;;;;;;6227050;28;20517;-78
2021/08/25 03:17:30;;;;;;;15.67;14.17;;;14.10;83.60;;;;;;6226392;28;20436;-78
2021/08/25 03:20:32;;;;;;;18.20;14.05;;;14.00;84.30;;;;;;6227730;28;20417;-79
2021/08/25 03:23:34;;;;;;;15.18;13.68;;;14.00;84.10;;;;;;6226840;28;20907;-79
2021/08/25 03:26:36;;;;;;;16.37;14.67;;;14.10;84.10;;;;;;6227378;28;20479;-79
2021/08/25 03:29:38;;;;;;;17.25;14.07;;;14.00;83.80;;;;;;6228467;28;20511;-79
2021/08/25 03:32:41;;;;;;;15.50;14.00;;;14.10;83.90;;;;;;6228456;28;20514;-79
2021/08/25 03:35:43;;;;;;;15.75;14.15;;;13.90;83.80;;;;;;6228336;28;20551;-79
2021/08/25 03:38:44;;;;;;;16.08;14.55;;;14.40;84.60;;;;;;6228114;28;20435;-79
2021/08/25 03:41:46;;;;;;;17.33;15.63;;;14.40;84.30;;;;;;6228910;28;20594;-79
2021/08/25 03:44:48;;;;;;;16.65;14.88;;;14.20;84.60;;;;;;6227295;28;20555;-79
2021/08/25 03:47:51;;;;;;;16.65;14.18;;;13.80;84.00;;;;;;6228020;28;21229;-79
2021/08/25 03:50:53;;;;;;;16.65;14.95;;;13.80;84.10;;;;;;6228281;28;20488;-79
2021/08/25 03:53:55;;;;;;;16.85;15.10;;;13.70;84.10;;;;;;6229240;28;20905;-79
2021/08/25 03:56:57;;;;;;;16.92;15.18;;;13.70;84.50;;;;;;6227231;28;20417;-79
2021/08/25 03:59:59;;;;;;;16.13;14.40;;;13.70;85.50;;;;;;6227539;28;20499;-79
2021/08/25 04:03:02;;;;;;;14.32;13.02;;;13.90;84.40;;;;;;6226608;28;20463;-79
2021/08/25 04:06:04;;;;;;;15.82;14.13;;;13.80;84.70;;;;;;6227842;28;20456;-79
2021/08/25 04:09:06;;;;;;;15.63;14.23;;;13.80;84.30;;;;;;6227532;28;20413;-79
2021/08/25 04:12:08;;;;;;;15.93;14.15;;;13.80;84.10;;;;;;6228482;28;20444;-79
2021/08/25 04:15:11;;;;;;;15.48;13.73;;;13.90;84.10;;;;;;6227384;28;20559;-79
2021/08/25 04:18:14;;;;;;;14.23;12.90;;;13.80;83.80;;;;;;6228287;28;20531;-79
2021/08/25 04:21:16;;;;;;;14.68;13.10;;;13.80;83.80;;;;;;6227171;28;20480;-79
2021/08/25 04:24:18;;;;;;;14.90;13.38;;;14.00;83.80;;;;;;6226596;28;21016;-79
2021/08/25 04:27:19;;;;;;;16.23;13.82;;;13.80;83.70;;;;;;6227112;28;20476;-79
2021/08/25 04:30:21;;;;;;;16.10;14.50;;;13.80;83.20;;;;;;6227529;28;20472;-79
2021/08/25 04:33:25;;;;;;;15.82;13.77;;;13.80;83.00;;;;;;6227645;28;20540;-79
2021/08/25 04:36:27;;;;;;;15.90;14.32;;;13.80;83.70;;;;;;6227732;28;21052;-79
2021/08/25 04:39:30;;;;;;;15.27;13.73;;;13.80;84.40;;;;;;6228074;28;20428;-79
2021/08/25 04:42:32;;;;;;;15.53;14.03;;;13.80;83.10;;;;;;6227557;28;20527;-79
2021/08/25 04:45:34;;;;;;;16.67;14.98;;;13.80;83.20;;;;;;6226674;28;20913;-78
2021/08/25 04:48:37;;;;;;;17.10;15.10;;;13.80;83.30;;;;;;6226737;28;20551;-79
2021/08/25 04:51:39;;;;;;;16.37;14.30;;;13.80;83.60;;;;;;6227157;28;20879;-79
2021/08/25 04:54:41;;;;;;;15.48;13.85;;;13.80;84.30;;;;;;6227355;28;20897;-79
2021/08/25 04:57:43;;;;;;;15.02;13.32;;;14.10;83.80;;;;;;6227182;28;21252;-79
2021/08/25 05:00:46;;;;;;;14.75;13.35;;;13.90;83.60;;;;;;6226936;28;20499;-79
2021/08/25 05:03:49;;;;;;;17.10;14.17;;;14.30;83.40;;;;;;6226478;28;20475;-79
2021/08/25 05:06:51;;;;;;;17.20;14.38;;;14.00;83.20;;;;;;6226348;28;20413;-79
2021/08/25 05:09:53;;;;;;;15.02;13.40;;;14.50;83.80;;;;;;6227620;28;20463;-79
2021/08/25 05:12:55;;;;;;;15.30;12.95;;;14.10;82.90;;;;;;6226467;28;20488;-79
2021/08/25 05:15:57;;;;;;;13.57;12.18;;;14.20;82.50;;;;;;6227015;28;20445;-79
2021/08/25 05:19:00;;;;;;;14.63;13.17;;;14.20;82.40;;;;;;6227499;28;20498;-79
2021/08/25 05:22:02;;;;;;;14.52;12.75;;;14.60;82.30;;;;;;6227794;28;20561;-79
2021/08/25 05:25:05;;;;;;;13.52;12.15;;;14.20;82.40;;;;;;6227809;28;20504;-79
2021/08/25 05:28:06;;;;;;;15.07;12.85;;;14.30;82.30;;;;;;6226998;28;20939;-79
2021/08/25 05:31:08;;;;;;;13.55;12.15;;;14.60;82.30;;;;;;6227206;28;20502;-79
2021/08/25 05:34:12;;;;;;;12.55;11.25;;;14.50;81.60;;;;;;6227759;28;20567;-79
2021/08/25 05:37:13;;;;;;;13.50;12.20;;;14.60;81.60;;;;;;6227144;28;20492;-79
2021/08/25 05:40:16;;;;;;;12.73;11.52;;;14.70;81.20;;;;;;6227206;28;20500;-79
2021/08/25 05:43:18;;;;;;;13.35;11.98;;;14.80;81.10;;;;;;6226685;28;20436;-80
2021/08/25 05:46:20;;;;;;;13.65;12.15;;;14.90;81.20;;;;;;6225296;28;20925;-78
2021/08/25 05:49:23;;;;;;;12.10;10.80;;;15.10;80.70;;;;;;6224973;28;20785;-79
2021/08/25 05:52:25;;;;;;;19.80;11.40;;;15.40;79.80;;;;;;6223005;28;20495;-78
2021/08/25 05:55:26;;;;;;;12.65;11.35;;;15.60;78.80;;;;;;6221239;28;20430;-78
2021/08/25 05:58:28;;;;;;;12.77;11.50;;;15.50;78.20;;;;;;6221718;28;20876;-78
2021/08/25 06:01:30;;;;;;;12.30;9.95;;;15.70;77.80;;;;;;6220563;28;20425;-78
2021/08/25 06:04:33;;;;;;;12.02;10.45;;;15.80;77.80;;;;;;6211887;28;20462;-79
2021/08/25 06:07:35;;;;;;;11.18;10.07;;;16.00;77.00;;;;;;6196848;28;20480;-79
2021/08/25 06:10:37;;;;;;;10.80;9.33;;;16.10;76.00;;;;;;6196685;28;20860;-78
2021/08/25 06:13:39;;;;;;;11.13;10.02;;;16.20;76.50;;;;;;6197500;28;20536;-78
2021/08/25 06:16:43;;;;;;;13.32;11.30;;;16.40;75.40;;;;;;6196380;28;20548;-78
2021/08/25 06:19:46;;;;;;;10.60;9.50;;;16.40;75.10;;;;;;6196606;28;20419;-79
2021/08/25 06:22:47;;;;;;;10.60;9.50;;;16.80;74.80;;;;;;6196875;28;20841;-78
2021/08/25 06:25:50;;;;;;;11.13;9.57;;;16.80;74.30;;;;;;6196928;28;20444;-79
2021/08/25 06:28:52;;;;;;;10.67;9.27;;;16.90;73.20;;;;;;6197562;28;20481;-78
2021/08/25 06:31:53;;;;;;;10.45;8.18;;;17.20;73.00;;;;;;6197288;28;20421;-78
2021/08/25 06:34:57;;;;;;;10.57;9.48;;;17.50;71.40;;;;;;6196433;28;20545;-78
2021/08/25 06:37:59;;;;;;;12.13;9.37;;;18.00;70.70;;;;;;6196584;28;20488;-79
2021/08/25 06:41:01;;;;;;;10.75;8.13;;;17.70;70.20;;;;;;6196690;28;20418;-78
2021/08/25 06:44:03;;;;;;;9.00;8.10;;;17.90;69.60;;;;;;6196147;28;20446;-78
2021/08/25 06:47:05;;;;;;;8.80;8.00;;;18.20;69.30;;;;;;6199907;28;20415;-79
2021/08/25 06:50:08;;;;;;;10.18;8.63;;;18.20;67.90;;;;;;6202201;28;20434;-78
2021/08/25 06:53:11;;;;;;;9.07;8.07;;;18.30;67.00;;;;;;6201382;28;20497;-78
2021/08/25 06:56:13;;;;;;;10.37;8.33;;;18.20;67.70;;;;;;6200507;28;20439;-78
2021/08/25 06:59:15;;;;;;;8.65;7.75;;;18.30;68.10;;;;;;6200943;28;20552;-78
2021/08/25 07:02:17;;;;;;;8.25;7.43;;;18.50;68.10;;;;;;6200349;28;20489;-78
2021/08/25 07:05:20;;;;;;;8.80;7.20;;;18.60;67.10;;;;;;6200423;28;20899;-78
2021/08/25 07:08:22;;;;;;;8.70;7.63;;;18.70;67.50;;;;;;6200324;28;20424;-78
2021/08/25 07:11:23;;;;;;;7.75;6.97;;;19.10;65.40;;;;;;6200590;28;20971;-77
2021/08/25 07:14:25;;;;;;;7.80;7.10;;;19.30;65.40;;;;;;6201046;28;20438;-78
2021/08/25 07:17:27;;;;;;;8.63;7.82;;;19.40;64.10;;;;;;6200568;28;20496;-78
2021/08/25 07:20:30;;;;;;;8.18;7.40;;;19.50;64.10;;;;;;6200489;28;20470;-79
2021/08/25 07:23:32;;;;;;;8.52;7.63;;;19.60;63.60;;;;;;6200252;28;20847;-78
2021/08/25 07:26:34;;;;;;;7.40;6.75;;;19.70;62.80;;;;;;6200922;28;20481;-78
2021/08/25 07:29:36;;;;;;;8.82;7.93;;;19.80;63.50;;;;;;6200671;28;20808;-78
2021/08/25 07:32:39;;;;;;;7.43;6.72;;;20.10;61.50;;;;;;6200451;28;20792;-78
2021/08/25 07:35:46;;;;;;;7.95;6.75;;;20.20;61.00;;;;;;6200401;28;20430;-78
2021/08/25 07:38:47;;;;;;;12.47;7.20;;;20.20;61.50;;;;;;6200475;28;20517;-78
2021/08/25 07:41:49;;;;;;;9.20;6.72;;;20.40;61.50;;;;;;6200859;28;20450;-78
2021/08/25 07:44:51;;;;;;;8.38;7.00;;;21.10;60.80;;;;;;6200350;28;20494;-78
2021/08/25 07:47:53;;;;;;;7.53;6.78;;;20.80;59.40;;;;;;6200193;28;20422;-78
2021/08/25 07:50:56;;;;;;;13.60;7.30;;;20.80;59.90;;;;;;6201289;28;20501;-78
2021/08/25 07:53:58;;;;;;;7.13;6.18;;;22.00;59.90;;;;;;6227907;28;20419;-80
2021/08/25 07:57:00;;;;;;;7.57;6.60;;;21.10;59.70;;;;;;6231094;28;20437;-80
2021/08/25 08:00:01;;;;;;;7.15;6.22;;;21.30;58.00;;;;;;6230187;28;20414;-81
2021/08/25 08:03:03;;;;;;;6.47;5.87;;;21.70;58.10;;;;;;6231663;28;20430;-80
2021/08/25 08:06:07;;;;;;;6.47;5.85;;;21.50;58.00;;;;;;6231733;28;20540;-77
2021/08/25 08:09:08;;;;;;;7.63;6.70;;;21.40;57.70;;;;;;6231360;28;20414;-78
2021/08/25 08:12:10;;;;;;;6.88;5.35;;;21.40;58.40;;;;;;6231410;28;20465;-77
2021/08/25 08:15:13;;;;;;;8.50;6.55;;;21.70;58.00;;;;;;6230694;28;20441;-77
2021/08/25 08:18:20;;;;;;;7.50;6.80;;;22.20;55.90;;;;;;6231405;28;20477;-77
2021/08/25 08:21:24;;;;;;;7.50;5.53;;;22.00;55.90;;;;;;6230593;28;20485;-78
2021/08/25 08:24:27;;;;;;;8.57;6.45;;;21.90;57.50;;;;;;6230182;28;20458;-78
2021/08/25 08:27:29;;;;;;;7.20;6.53;;;22.00;56.50;;;;;;6229673;28;20415;-77
2021/08/25 08:30:32;;;;;;;6.75;6.15;;;21.80;56.40;;;;;;6202063;28;20530;-76
2021/08/25 08:33:34;;;;;;;8.07;5.50;;;21.90;56.50;;;;;;6199175;28;20497;-76
2021/08/25 08:36:37;;;;;;;6.60;6.00;;;21.90;57.50;;;;;;6198297;28;20536;-77
2021/08/25 08:39:38;;;;;;;8.60;6.03;;;22.10;56.70;;;;;;6198472;28;20528;-76
2021/08/25 08:42:41;;;;;;;6.53;5.40;;;22.00;56.10;;;;;;6199617;28;20532;-76
2021/08/25 08:45:44;;;;;;;7.68;6.80;;;22.00;55.90;;;;;;6200764;28;20521;-76
2021/08/25 08:48:47;;;;;;;11.68;5.88;;;22.10;56.50;;;;;;6200576;28;20525;-76
2021/08/25 08:51:51;;;;;;;8.15;6.47;;;22.30;56.10;;;;;;6209777;28;20445;-76
2021/08/25 08:54:54;;;;;;;7.22;6.00;;;22.50;55.50;;;;;;6197456;28;20496;-76
2021/08/25 08:57:56;;;;;;;7.30;5.78;;;22.70;55.00;;;;;;6198088;28;20589;-76
2021/08/25 09:00:58;;;;;;;7.30;5.35;;;22.80;54.50;;;;;;6197649;28;20469;-76
2021/08/25 09:04:00;;;;;;;5.63;5.10;;;22.70;55.10;;;;;;6198876;28;20487;-76
2021/08/25 09:07:04;;;;;;;9.50;6.32;;;22.90;54.50;;;;;;6197224;28;21015;-76
2021/08/25 09:10:06;;;;;;;8.50;5.85;;;23.10;54.70;;;;;;6196746;28;20924;-76
2021/08/25 09:13:10;;;;;;;5.80;5.20;;;23.50;53.90;;;;;;6202410;28;20492;-76
2021/08/25 09:16:25;;;;;;;8.37;5.57;;;23.80;53.20;;;;;;6221001;28;20427;-76
2021/08/25 09:19:35;;;;;;;6.32;5.43;;;24.20;51.00;;;;;;6220777;28;20424;-77
2021/08/25 09:22:38;;;;;;;9.35;5.20;;;24.40;50.60;;;;;;6220701;28;20527;-76
2021/08/25 09:25:41;;;;;;;5.70;4.10;;;24.60;51.00;;;;;;6221061;28;20482;-76
2021/08/25 09:28:43;;;;;;;6.53;4.68;;;24.90;48.60;;;;;;6220718;28;20421;-77
2021/08/25 09:31:45;;;;;;;9.00;5.00;;;24.90;49.20;;;;;;6220781;28;20494;-77
2021/08/25 09:34:47;;;;;;;6.22;5.00;;;24.80;49.30;;;;;;6221117;28;20436;-76
2021/08/25 09:37:55;;;;;;;5.60;4.70;;;24.60;49.10;;;;;;6221727;28;20432;-76
2021/08/25 09:40:59;;;;;;;10.40;4.95;;;24.40;49.10;;;;;;6220725;28;20427;-76
2021/08/25 09:44:15;;;;;;;6.78;5.38;;;24.40;49.80;;;;;;6220592;28;20419;-77
2021/08/25 09:47:17;;;;;;;6.40;4.95;;;24.20;49.00;;;;;;6220549;28;20417;-77
2021/08/25 09:50:20;;;;;;;6.53;4.95;;;24.10;50.90;;;;;;6221102;28;20917;-77
2021/08/25 09:53:23;;;;;;;6.28;5.15;;;24.40;50.60;;;;;;6212901;28;20447;-76
2021/08/25 09:56:27;;;;;;;5.65;4.60;;;24.40;50.30;;;;;;6220544;28;20500;-77
2021/08/25 09:59:31;;;;;;;6.18;4.45;;;24.50;49.70;;;;;;6220122;28;20420;-77
2021/08/25 10:02:33;;;;;;;7.00;4.82;;;24.50;49.00;;;;;;6220416;28;20472;-77
2021/08/25 10:05:35;;;;;;;6.78;4.88;;;24.40;50.30;;;;;;6220267;28;20922;-77
2021/08/25 10:08:39;;;;;;;6.18;4.07;;;24.60;48.50;;;;;;6219559;28;20417;-77
2021/08/25 10:11:43;;;;;;;6.30;5.03;;;24.60;48.40;;;;;;6220834;28;20521;-77
2021/08/25 10:14:45;;;;;;;6.03;3.83;;;24.40;48.60;;;;;;6219711;28;20427;-77
2021/08/25 10:17:47;;;;;;;6.40;4.45;;;24.30;49.30;;;;;;6221839;28;20585;-77
2021/08/25 10:20:49;;;;;;;5.10;4.07;;;24.40;47.70;;;;;;6223313;28;20428;-77
2021/08/25 10:24:04;;;;;;;4.65;4.13;;;24.30;47.60;;;;;;6223787;28;20504;-78
2021/08/25 10:27:11;;;;;;;6.38;4.40;;;24.40;47.70;;;;;;6223299;28;20439;-77
2021/08/25 10:30:17;;;;;;;5.90;3.72;;;24.40;46.80;;;;;;6222980;28;20535;-77
2021/08/25 10:33:20;;;;;;;5.82;4.35;;;24.30;46.70;;;;;;6220481;28;20937;-77
2021/08/25 10:36:23;;;;;;;5.75;3.85;;;24.10;46.30;;;;;;6219254;28;20444;-78
2021/08/25 10:39:33;;;;;;;5.73;4.23;;;24.20;49.30;;;;;;6219733;28;20412;-78
2021/08/25 10:43:03;;;;;;;7.53;3.58;;;24.30;47.10;;;;;;6219356;28;20444;-77
2021/08/25 10:46:06;;;;;;;6.88;3.33;;;24.40;47.10;;;;;;6174044;28;20435;-78
2021/08/25 10:49:07;;;;;;;5.38;4.35;;;24.50;45.10;;;;;;6218985;28;21259;-78
2021/08/25 10:52:28;;;;;;;6.85;4.03;;;24.50;46.20;;;;;;6215180;28;20424;-77
2021/08/25 10:55:32;;;;;;;4.97;3.70;;;25.00;46.30;;;;;;6216225;28;20594;-77
2021/08/25 10:58:42;;;;;;;6.05;3.35;;;25.10;43.40;;;;;;6219340;28;20443;-77
2021/08/25 11:01:46;;;;;;;5.00;3.58;;;24.90;43.60;;;;;;6219688;28;20482;-76
2021/08/25 11:04:47;;;;;;;6.25;3.78;;;24.70;43.90;;;;;;6218726;28;20412;-77
2021/08/25 11:07:49;;;;;;;5.40;4.40;;;24.80;45.10;;;;;;6218828;28;20496;-77
2021/08/25 11:10:52;;;;;;;6.38;3.50;;;24.90;42.00;;;;;;6219017;28;20523;-77
2021/08/25 11:13:54;;;;;;;4.83;3.70;;;25.00;41.90;;;;;;6219583;28;20990;-78
2021/08/25 11:16:58;;;;;;;5.47;4.15;;;25.30;42.70;;;;;;6218724;28;21122;-77
2021/08/25 11:20:01;;;;;;;6.05;4.18;;;25.60;42.10;;;;;;6219185;28;20492;-78
2021/08/25 11:23:03;;;;;;;4.80;3.70;;;25.80;38.90;;;;;;6218968;28;20790;-77
2021/08/25 11:26:07;;;;;;;4.23;3.23;;;25.80;38.90;;;;;;6219083;28;20647;-77
2021/08/25 11:29:17;;;;;;;4.90;3.95;;;25.70;39.90;;;;;;6218804;28;20412;-78
2021/08/25 11:32:19;;;;;;;4.43;3.38;;;25.50;40.00;;;;;;6221094;28;20736;-77
2021/08/25 11:35:28;;;;;;;4.20;3.28;;;25.50;40.70;;;;;;6222552;28;20459;-77
2021/08/25 11:38:29;;;;;;;5.10;4.07;;;25.70;38.40;;;;;;6220074;28;20668;-77
2021/08/25 11:41:44;;;;;;;5.20;3.53;;;25.70;39.00;;;;;;6199124;28;20633;-77
2021/08/25 11:44:46;;;;;;;5.90;3.67;;;25.80;39.20;;;;;;6198668;28;20461;-77
2021/08/25 11:47:50;;;;;;;5.03;3.78;;;26.90;40.20;;;;;;6198539;28;20450;-77
2021/08/25 11:50:52;;;;;;;6.00;3.92;;;26.10;39.20;;;;;;6199651;28;20490;-77
2021/08/25 11:53:54;;;;;;;4.53;3.93;;;26.20;36.00;;;;;;6207538;28;20508;-77
2021/08/25 11:56:57;;;;;;;4.50;3.70;;;25.90;37.70;;;;;;6220019;28;20417;-77
2021/08/25 12:00:00;;;;;;;5.60;4.03;;;25.80;36.20;;;;;;6223060;28;20825;-77
2021/08/25 12:03:03;;;;;;;5.20;3.35;;;25.80;36.90;;;;;;6223166;28;22383;-77
2021/08/25 12:06:05;;;;;;;6.95;3.92;;;25.90;38.40;;;;;;6222904;28;20579;-77
2021/08/25 12:09:07;;;;;;;7.00;3.97;;;25.80;38.60;;;;;;6222815;28;20498;-78
2021/08/25 12:12:11;;;;;;;6.93;3.88;;;25.70;36.90;;;;;;6223322;28;20450;-77
2021/08/25 12:15:13;;;;;;;9.10;4.20;;;25.80;37.50;;;;;;6222459;28;20428;-77
2021/08/25 12:18:15;;;;;;;4.90;4.07;;;26.00;38.00;;;;;;6223098;28;20476;-77
2021/08/25 12:21:18;;;;;;;4.13;3.28;;;26.00;37.40;;;;;;6222439;28;20459;-76
2021/08/25 12:24:20;;;;;;;4.20;3.50;;;26.10;37.00;;;;;;6222609;28;20537;-78
2021/08/25 12:27:23;;;;;;;5.90;3.60;;;26.10;38.40;;;;;;6222013;28;20571;-77
2021/08/25 12:30:33;;;;;;;4.10;3.30;;;26.50;38.90;;;;;;6223492;28;20489;-77
2021/08/25 12:33:35;;;;;;;6.43;4.70;;;26.80;35.90;;;;;;6222415;28;20496;-78
2021/08/25 12:36:39;;;;;;;5.25;3.42;;;27.10;36.10;;;;;;6222100;28;20417;-77
2021/08/25 12:39:41;;;;;;;5.68;4.10;;;27.30;35.90;;;;;;6221975;28;20499;-77
2021/08/25 12:42:44;;;;;;;9.13;4.07;;;27.50;35.60;;;;;;6219695;28;20432;-77
2021/08/25 12:45:46;;;;;;;5.15;4.13;;;27.50;35.20;;;;;;6222214;28;20432;-77
2021/08/25 12:48:48;;;;;;;5.00;3.60;;;27.40;35.50;;;;;;6221634;28;20423;-77
2021/08/25 12:51:50;;;;;;;6.75;4.25;;;27.60;35.20;;;;;;6221594;28;20496;-77
2021/08/25 12:54:52;;;;;;;5.60;3.85;;;27.80;35.20;;;;;;6217577;28;20907;-77
2021/08/25 12:57:55;;;;;;;4.80;3.40;;;27.40;34.70;;;;;;6201901;28;20625;-77
2021/08/25 13:00:57;;;;;;;5.60;3.78;;;27.00;34.90;;;;;;6196982;28;20507;-77
2021/08/25 13:03:59;;;;;;;9.80;4.47;;;26.80;35.60;;;;;;6197276;28;20634;-78
2021/08/25 13:07:01;;;;;;;5.47;4.00;;;26.90;34.60;;;;;;6196217;28;20828;-78
2021/08/25 13:10:03;;;;;;;5.97;4.25;;;27.00;34.50;;;;;;6197506;28;20581;-78
2021/08/25 13:13:06;;;;;;;7.57;4.47;;;27.40;34.00;;;;;;6203191;28;20449;-78
2021/08/25 13:16:08;;;;;;;7.83;5.07;;;27.80;33.40;;;;;;6220926;28;20428;-77
2021/08/25 13:19:10;;;;;;;4.78;4.10;;;27.80;34.60;;;;;;6221978;28;20559;-77
2021/08/25 13:22:12;;;;;;;6.30;4.23;;;27.80;34.80;;;;;;6221962;28;20433;-77
2021/08/25 13:25:13;;;;;;;7.63;4.43;;;28.00;35.00;;;;;;6221862;28;20551;-78
2021/08/25 13:28:17;;;;;;;6.70;4.38;;;27.80;33.00;;;;;;6220987;28;20500;-77
2021/08/25 13:31:19;;;;;;;6.53;4.57;;;27.40;36.20;;;;;;6220953;28;20495;-77
2021/08/25 13:34:21;;;;;;;7.07;4.35;;;27.00;33.60;;;;;;6221109;28;20542;-78
2021/08/25 13:37:23;;;;;;;5.63;3.92;;;26.70;35.80;;;;;;6220852;28;20431;-77
2021/08/25 13:40:25;;;;;;;5.13;3.85;;;26.60;35.00;;;;;;6220877;28;20502;-77
2021/08/25 13:43:28;;;;;;;5.78;4.38;;;26.50;34.70;;;;;;6221905;28;20416;-77
2021/08/25 13:46:32;;;;;;;5.53;4.05;;;26.50;37.00;;;;;;6221768;28;20495;-77
2021/08/25 13:49:33;;;;;;;4.45;3.85;;;26.50;36.00;;;;;;6221184;28;20440;-77
2021/08/25 13:52:35;;;;;;;7.95;4.68;;;26.60;36.20;;;;;;6220219;28;20496;-77
2021/08/25 13:55:37;;;;;;;6.18;4.57;;;26.80;36.10;;;;;;6213419;28;20427;-77
2021/08/25 13:58:40;;;;;;;5.30;4.13;;;26.90;35.80;;;;;;6216846;28;20443;-77
2021/08/25 14:01:42;;;;;;;5.72;4.85;;;26.60;35.20;;;;;;6221044;28;20432;-77
2021/08/25 14:04:44;;;;;;;7.68;4.90;;;26.50;36.60;;;;;;6220469;28;20981;-77
2021/08/25 14:07:46;;;;;;;6.50;5.07;;;26.50;36.90;;;;;;6221045;28;20554;-77
2021/08/25 14:10:47;;;;;;;6.23;4.40;;;26.50;37.40;;;;;;6221021;28;20487;-78
2021/08/25 14:13:51;;;;;;;5.60;4.17;;;26.60;36.00;;;;;;6222055;28;20518;-77
2021/08/25 14:16:53;;;;;;;5.65;4.70;;;26.60;35.70;;;;;;6221513;28;20499;-77
2021/08/25 14:19:55;;;;;;;9.13;5.03;;;26.50;36.00;;;;;;6221358;28;20793;-77
2021/08/25 14:22:57;;;;;;;5.05;4.30;;;26.60;36.10;;;;;;6221747;28;20580;-78
2021/08/25 14:25:59;;;;;;;7.32;4.60;;;26.90;34.00;;;;;;6221537;28;21013;-77
2021/08/25 14:29:02;;;;;;;8.68;5.47;;;26.90;34.50;;;;;;6220637;28;20504;-77
2021/08/25 14:32:05;;;;;;;4.70;4.13;;;26.70;34.30;;;;;;6221261;28;20531;-77
2021/08/25 14:35:08;;;;;;;5.57;4.95;;;26.40;34.80;;;;;;6219626;28;20421;-77
2021/08/25 14:38:09;;;;;;;7.10;4.93;;;26.50;35.40;;;;;;6220039;28;20489;-77
2021/08/25 14:41:11;;;;;;;5.70;4.40;;;26.70;35.00;;;;;;6219920;28;20428;-77
2021/08/25 14:44:14;;;;;;;10.77;4.20;;;26.70;34.20;;;;;;6219617;28;20559;-77
2021/08/25 14:47:16;;;;;;;8.23;5.50;;;26.50;35.60;;;;;;6219319;28;20496;-77
2021/08/25 14:50:18;;;;;;;6.18;5.10;;;26.50;34.60;;;;;;6220766;28;20472;-77
2021/08/25 14:53:20;;;;;;;6.80;5.22;;;26.50;35.90;;;;;;6219543;28;20515;-77
2021/08/25 14:56:22;;;;;;;7.47;5.45;;;27.00;35.20;;;;;;6218360;28;20975;-77
2021/08/25 14:59:25;;;;;;;7.13;5.47;;;27.30;35.30;;;;;;6215893;28;20514;-77
2021/08/25 15:02:27;;;;;;;7.82;4.57;;;27.40;34.30;;;;;;6219989;28;20519;-77
2021/08/25 15:05:29;;;;;;;10.13;5.25;;;26.80;34.80;;;;;;6219063;28;20437;-77
2021/08/25 15:08:31;;;;;;;6.53;4.95;;;26.70;35.20;;;;;;6223646;28;20788;-76
2021/08/25 15:11:33;;;;;;;10.90;5.97;;;26.80;36.30;;;;;;6224268;28;20494;-77
2021/08/25 15:14:36;;;;;;;8.45;6.00;;;26.90;35.50;;;;;;6223853;28;20525;-77
2021/08/25 15:17:38;;;;;;;6.78;5.68;;;26.70;35.00;;;;;;6224831;28;20432;-77
2021/08/25 15:20:40;;;;;;;8.07;5.68;;;26.80;35.70;;;;;;6224126;28;20471;-77
2021/08/25 15:23:42;;;;;;;7.18;5.68;;;26.80;34.20;;;;;;6224000;28;20823;-77
2021/08/25 15:26:45;;;;;;;9.15;5.22;;;26.50;34.90;;;;;;6223643;28;20862;-77
2021/08/25 15:29:48;;;;;;;9.70;6.05;;;26.30;36.40;;;;;;6224553;28;20527;-77
2021/08/25 15:32:50;;;;;;;8.05;5.57;;;26.30;34.30;;;;;;6223989;28;20451;-77
2021/08/25 15:35:51;;;;;;;7.78;5.78;;;26.50;34.70;;;;;;6223491;28;20420;-77
2021/08/25 15:38:56;;;;;;;7.38;6.03;;;26.40;35.30;;;;;;6223483;28;21025;-77
2021/08/25 15:41:57;;;;;;;6.25;5.15;;;26.20;36.10;;;;;;6224337;28;20440;-77